createdAt,value
2022-08-09T00:00:53.853Z,15.76
2022-08-09T00:01:55.019Z,15.74
2022-08-09T00:02:52.801Z,15.72
2022-08-09T00:04:00.687Z,15.74
2022-08-09T00:05:03.099Z,15.72
2022-08-09T00:06:17.390Z,15.69
2022-08-09T00:06:53.746Z,15.65
2022-08-09T00:07:54.393Z,15.64
2022-08-09T00:08:53.336Z,15.64
2022-08-09T00:09:52.727Z,15.60
2022-08-09T00:10:52.698Z,15.59
2022-08-09T00:12:02.876Z,15.60
2022-08-09T00:12:53.676Z,15.57
2022-08-09T00:13:52.775Z,15.56
2022-08-09T00:14:56.831Z,15.54
2022-08-09T00:15:59.287Z,15.53
2022-08-09T00:16:53.708Z,15.51
2022-08-09T00:18:10.625Z,15.49
2022-08-09T00:18:53.937Z,15.47
2022-08-09T00:19:52.611Z,15.44
2022-08-09T00:20:52.595Z,15.44
2022-08-09T00:21:56.692Z,15.39
2022-08-09T00:22:52.567Z,15.38
2022-08-09T00:23:57.235Z,15.36
2022-08-09T00:24:53.537Z,15.34
2022-08-09T00:25:52.566Z,15.34
2022-08-09T00:26:52.535Z,15.32
2022-08-09T00:27:52.547Z,15.29
2022-08-09T00:28:53.293Z,15.28
2022-08-09T00:30:21.426Z,15.27
2022-08-09T00:30:53.477Z,15.25
2022-08-09T00:32:00.811Z,15.25
2022-08-09T00:32:53.447Z,15.25
2022-08-09T00:33:52.452Z,15.23
2022-08-09T00:34:52.957Z,15.23
2022-08-09T00:35:52.438Z,15.23
2022-08-09T00:36:52.427Z,15.21
2022-08-09T00:37:52.408Z,15.19
2022-08-09T00:38:52.378Z,15.17
2022-08-09T00:40:13.928Z,15.20
2022-08-09T00:40:53.830Z,15.19
2022-08-09T00:44:10.787Z,15.17
2022-08-09T00:44:11.477Z,15.17
2022-08-09T00:44:13.720Z,15.17
2022-08-09T00:44:53.565Z,15.17
2022-08-09T00:45:54.166Z,15.19
2022-08-09T00:46:57.278Z,15.19
2022-08-09T00:47:53.289Z,15.20
2022-08-09T00:48:56.170Z,15.19
2022-08-09T00:49:55.188Z,15.17
2022-08-09T00:50:52.587Z,15.14
2022-08-09T00:51:55.906Z,15.10
2022-08-09T00:52:52.228Z,15.09
2022-08-09T00:53:52.636Z,15.09
2022-08-09T00:54:52.198Z,15.09
2022-08-09T00:56:05.597Z,15.06
2022-08-09T00:56:53.191Z,15.03
2022-08-09T00:57:52.198Z,15.03
2022-08-09T00:58:53.178Z,15.02
2022-08-09T00:59:52.671Z,15.02
2022-08-09T01:00:52.158Z,15.02
2022-08-09T01:01:52.243Z,15.02
2022-08-09T01:02:52.098Z,15.02
2022-08-09T01:03:52.106Z,14.99
2022-08-09T01:04:52.067Z,15.01
2022-08-09T01:05:54.493Z,14.98
2022-08-09T01:06:54.429Z,14.96
2022-08-09T01:08:00.168Z,14.96
2022-08-09T01:08:53.029Z,14.96
2022-08-09T01:09:52.029Z,14.95
2022-08-09T01:10:52.000Z,14.96
2022-08-09T01:11:55.546Z,14.94
2022-08-09T01:12:52.699Z,14.91
2022-08-09T01:13:59.548Z,14.92
2022-08-09T01:14:52.975Z,14.91
2022-08-09T01:15:52.912Z,14.89
2022-08-09T01:16:51.932Z,14.86
2022-08-09T01:17:52.027Z,14.86
2022-08-09T01:19:02.514Z,14.83
2022-08-09T01:20:02.455Z,14.83
2022-08-09T01:20:52.908Z,14.81
2022-08-09T01:21:53.579Z,14.78
2022-08-09T01:22:54.649Z,14.78
2022-08-09T01:24:02.838Z,14.73
2022-08-09T01:24:52.861Z,14.77
2022-08-09T01:25:51.838Z,14.75
2022-08-09T01:26:53.506Z,14.73
2022-08-09T01:27:52.167Z,14.72
2022-08-09T01:28:51.788Z,14.72
2022-08-09T01:29:55.191Z,14.70
2022-08-09T01:30:53.284Z,14.69
2022-08-09T01:32:31.324Z,14.68
2022-08-09T01:32:52.749Z,14.65
2022-08-09T01:33:51.749Z,14.68
2022-08-09T01:34:51.719Z,14.64
2022-08-09T01:35:52.279Z,14.60
2022-08-09T01:36:52.098Z,14.58
2022-08-09T01:38:09.440Z,14.57
2022-08-09T01:38:52.669Z,14.55
2022-08-09T01:39:51.837Z,14.55
2022-08-09T01:40:53.004Z,14.54
2022-08-09T01:41:55.918Z,14.51
2022-08-09T01:42:52.631Z,14.51
2022-08-09T01:43:52.672Z,14.47
2022-08-09T01:44:51.607Z,14.50
2022-08-09T01:45:51.610Z,14.47
2022-08-09T01:46:53.111Z,14.46
2022-08-09T01:47:51.590Z,14.43
2022-08-09T01:48:51.549Z,14.43
2022-08-09T01:49:54.672Z,14.43
2022-08-09T01:50:55.055Z,14.42
2022-08-09T01:51:53.153Z,14.40
2022-08-09T01:52:51.509Z,14.42
2022-08-09T01:53:53.785Z,14.42
2022-08-09T01:54:52.568Z,14.40
2022-08-09T01:55:51.518Z,14.40
2022-08-09T01:56:52.330Z,14.40
2022-08-09T01:57:53.108Z,14.42
2022-08-09T01:58:51.482Z,14.42
2022-08-09T01:59:52.437Z,14.40
2022-08-09T02:00:51.455Z,14.39
2022-08-09T02:01:59.013Z,14.37
2022-08-09T02:02:52.389Z,14.39
2022-08-09T02:03:51.388Z,14.42
2022-08-09T02:04:51.372Z,14.40
2022-08-09T02:06:03.931Z,14.40
2022-08-09T02:06:58.477Z,14.40
2022-08-09T02:08:41.209Z,14.37
2022-08-09T02:08:58.432Z,14.37
2022-08-09T02:09:59.622Z,14.37
2022-08-09T02:10:52.379Z,14.36
2022-08-09T02:11:51.422Z,14.33
2022-08-09T02:12:51.270Z,14.33
2022-08-09T02:14:07.322Z,14.33
2022-08-09T02:14:52.251Z,14.33
2022-08-09T02:15:51.259Z,14.33
2022-08-09T02:16:59.449Z,14.32
2022-08-09T02:18:01.733Z,14.29
2022-08-09T02:18:52.207Z,14.28
2022-08-09T02:19:51.209Z,14.27
2022-08-09T02:20:51.190Z,14.27
2022-08-09T02:21:55.622Z,14.28
2022-08-09T02:22:51.264Z,14.28
2022-08-09T02:23:52.340Z,14.27
2022-08-09T02:24:51.874Z,14.27
2022-08-09T02:25:55.707Z,14.27
2022-08-09T02:26:52.109Z,14.27
2022-08-09T02:28:00.063Z,14.24
2022-08-09T02:28:52.078Z,14.22
2022-08-09T02:29:51.079Z,14.21
2022-08-09T02:30:51.744Z,14.21
2022-08-09T02:31:51.057Z,14.25
2022-08-09T02:32:51.168Z,14.24
2022-08-09T02:33:58.444Z,14.24
2022-08-09T02:34:55.977Z,14.24
2022-08-09T02:36:02.940Z,14.24
2022-08-09T02:36:52.533Z,14.25
2022-08-09T02:37:51.000Z,14.25
2022-08-09T02:38:51.883Z,14.25
2022-08-09T02:39:55.213Z,14.25
2022-08-09T02:40:51.988Z,14.25
2022-08-09T02:41:50.960Z,14.25
2022-08-09T02:42:51.074Z,14.21
2022-08-09T02:43:54.999Z,14.21
2022-08-09T02:44:50.890Z,14.21
2022-08-09T02:45:50.890Z,14.20
2022-08-09T02:46:52.292Z,14.18
2022-08-09T02:47:59.281Z,14.17
2022-08-09T02:48:51.842Z,14.15
2022-08-09T02:49:55.487Z,14.14
2022-08-09T02:50:55.828Z,14.12
2022-08-09T02:51:50.830Z,14.10
2022-08-09T02:52:55.421Z,14.09
2022-08-09T02:54:00.507Z,14.06
2022-08-09T02:54:55.026Z,14.04
2022-08-09T02:55:58.423Z,14.04
2022-08-09T02:56:53.940Z,14.02
2022-08-09T02:58:00.115Z,14.00
2022-08-09T02:58:51.719Z,13.97
2022-08-09T03:00:20.591Z,13.96
2022-08-09T03:00:57.815Z,13.95
2022-08-09T03:02:05.329Z,13.92
2022-08-09T03:02:59.835Z,13.89
2022-08-09T03:04:16.883Z,13.88
2022-08-09T03:04:51.650Z,13.84
2022-08-09T03:05:50.660Z,13.81
2022-08-09T03:06:52.100Z,13.79
2022-08-09T03:07:54.920Z,13.78
2022-08-09T03:08:50.621Z,13.77
2022-08-09T03:09:54.508Z,13.73
2022-08-09T03:10:51.591Z,13.70
2022-08-09T03:12:06.629Z,13.66
2022-08-09T03:12:52.086Z,13.66
2022-08-09T03:13:59.636Z,13.63
2022-08-09T03:14:51.546Z,13.62
2022-08-09T03:16:05.886Z,13.59
2022-08-09T03:16:51.520Z,13.59
2022-08-09T03:17:57.913Z,13.55
2022-08-09T03:18:53.029Z,13.54
2022-08-09T03:19:57.775Z,13.51
2022-08-09T03:20:51.481Z,13.52
2022-08-09T03:21:50.897Z,13.51
2022-08-09T03:22:56.856Z,13.48
2022-08-09T03:24:03.793Z,13.48
2022-08-09T03:24:52.195Z,13.45
2022-08-09T03:25:57.964Z,13.45
2022-08-09T03:26:51.413Z,13.46
2022-08-09T03:27:50.409Z,13.45
2022-08-09T03:28:55.038Z,13.45
2022-08-09T03:29:58.263Z,13.48
2022-08-09T03:30:51.371Z,13.46
2022-08-09T03:32:00.474Z,13.48
2022-08-09T03:32:51.340Z,13.46
2022-08-09T03:33:53.347Z,13.42
2022-08-09T03:34:54.071Z,13.41
2022-08-09T03:36:13.715Z,13.42
2022-08-09T03:36:58.527Z,13.42
2022-08-09T03:37:56.948Z,13.41
2022-08-09T03:38:51.273Z,13.41
2022-08-09T03:39:55.323Z,13.38
2022-08-09T03:40:51.269Z,13.33
2022-08-09T03:41:50.260Z,13.33
2022-08-09T03:42:51.231Z,13.33
2022-08-09T03:43:51.920Z,13.29
2022-08-09T03:44:51.321Z,13.30
2022-08-09T03:46:04.969Z,13.29
2022-08-09T03:46:51.190Z,13.28
2022-08-09T03:47:50.190Z,13.28
2022-08-09T03:48:51.802Z,13.23
2022-08-09T03:49:58.133Z,13.25
2022-08-09T03:50:51.143Z,13.23
2022-08-09T03:51:58.507Z,13.20
2022-08-09T03:52:51.120Z,13.22
2022-08-09T03:53:50.124Z,13.23
2022-08-09T03:54:50.975Z,13.25
2022-08-09T03:55:50.108Z,13.22
2022-08-09T03:56:50.093Z,13.22
2022-08-09T03:58:03.109Z,13.23
2022-08-09T03:58:51.074Z,13.26
2022-08-09T03:59:54.651Z,13.25
2022-08-09T04:00:51.093Z,13.23
2022-08-09T04:01:50.075Z,13.25
2022-08-09T04:02:52.663Z,13.25
2022-08-09T04:04:01.027Z,13.26
2022-08-09T04:04:51.041Z,13.26
2022-08-09T04:05:49.999Z,13.26
2022-08-09T04:06:50.065Z,13.25
2022-08-09T04:07:53.694Z,13.23
2022-08-09T04:08:50.960Z,13.23
2022-08-09T04:09:52.922Z,13.23
2022-08-09T04:10:49.922Z,13.25
2022-08-09T04:11:49.931Z,13.22
2022-08-09T04:12:50.030Z,13.20
2022-08-09T04:14:52.925Z,13.19
2022-08-09T04:15:01.750Z,13.19
2022-08-09T04:16:20.986Z,13.20
2022-08-09T04:16:50.868Z,13.17
2022-08-09T04:17:49.913Z,13.17
2022-08-09T04:18:51.071Z,13.20
2022-08-09T04:19:51.399Z,13.22
2022-08-09T04:20:51.464Z,13.23
2022-08-09T04:21:49.823Z,13.25
2022-08-09T04:22:50.245Z,13.22
2022-08-09T04:23:54.116Z,13.22
2022-08-09T04:24:50.814Z,13.20
2022-08-09T04:25:52.393Z,13.23
2022-08-09T04:26:49.768Z,13.23
2022-08-09T04:27:49.731Z,13.23
2022-08-09T04:28:49.780Z,13.23
2022-08-09T04:29:50.492Z,13.25
2022-08-09T04:30:49.720Z,13.25
2022-08-09T04:31:49.696Z,13.29
2022-08-09T04:32:49.691Z,13.28
2022-08-09T04:33:52.807Z,13.29
2022-08-09T04:34:54.087Z,13.30
2022-08-09T04:35:49.660Z,13.33
2022-08-09T04:36:50.376Z,13.33
2022-08-09T04:37:49.634Z,13.36
2022-08-09T04:38:49.631Z,13.38
2022-08-09T04:39:49.661Z,13.38
2022-08-09T04:40:56.109Z,13.39
2022-08-09T04:41:50.583Z,13.41
2022-08-09T04:42:49.591Z,13.39
2022-08-09T04:44:05.031Z,13.42
2022-08-09T04:44:50.560Z,13.44
2022-08-09T04:45:53.164Z,13.46
2022-08-09T04:46:58.495Z,13.46
2022-08-09T04:48:00.876Z,13.46
2022-08-09T04:48:57.612Z,13.48
2022-08-09T04:49:53.416Z,13.48
2022-08-09T04:50:50.237Z,13.48
2022-08-09T04:51:50.132Z,13.46
2022-08-09T04:52:49.482Z,13.48
2022-08-09T04:53:54.163Z,13.48
2022-08-09T04:54:50.450Z,13.49
2022-08-09T04:55:58.856Z,13.49
2022-08-09T04:56:50.425Z,13.52
2022-08-09T04:57:58.462Z,13.55
2022-08-09T04:58:50.829Z,13.57
2022-08-09T04:59:50.304Z,13.59
2022-08-09T05:00:49.402Z,13.62
2022-08-09T05:01:49.408Z,13.63
2022-08-09T05:02:52.706Z,13.66
2022-08-09T05:03:49.372Z,13.67
2022-08-09T05:04:55.362Z,13.70
2022-08-09T05:05:51.857Z,13.73
2022-08-09T05:06:50.574Z,13.78
2022-08-09T05:07:49.291Z,13.79
2022-08-09T05:08:49.441Z,13.87
2022-08-09T05:09:49.576Z,13.92
2022-08-09T05:10:49.269Z,13.99
2022-08-09T05:11:50.002Z,14.07
2022-08-09T05:12:49.437Z,14.18
2022-08-09T05:13:49.270Z,14.29
2022-08-09T05:14:49.243Z,14.40
2022-08-09T05:15:56.535Z,14.52
2022-08-09T05:16:59.039Z,14.64
2022-08-09T05:18:50.898Z,14.77
2022-08-09T05:18:58.643Z,14.88
2022-08-09T05:19:50.161Z,14.99
2022-08-09T05:20:50.162Z,15.14
2022-08-09T05:21:55.134Z,15.27
2022-08-09T05:23:54.103Z,15.35
2022-08-09T05:23:54.757Z,15.47
2022-08-09T05:24:50.913Z,15.56
2022-08-09T05:25:50.977Z,15.65
2022-08-09T05:26:49.208Z,15.76
2022-08-09T05:27:49.187Z,15.86
2022-08-09T05:28:49.093Z,15.97
2022-08-09T05:29:49.072Z,16.05
2022-08-09T05:30:49.150Z,16.14
2022-08-09T05:31:56.191Z,16.23
2022-08-09T05:32:53.149Z,16.33
2022-08-09T05:33:49.059Z,16.43
2022-08-09T05:34:49.065Z,16.53
2022-08-09T05:35:50.003Z,16.64
2022-08-09T05:36:48.992Z,16.71
2022-08-09T05:37:50.259Z,16.81
2022-08-09T05:38:49.024Z,16.88
2022-08-09T05:39:49.003Z,16.98
2022-08-09T05:40:50.581Z,17.07
2022-08-09T05:41:48.954Z,17.19
2022-08-09T05:42:48.981Z,17.28
2022-08-09T05:43:48.998Z,17.41
2022-08-09T05:44:50.908Z,17.52
2022-08-09T05:45:55.575Z,17.59
2022-08-09T05:46:49.911Z,17.66
2022-08-09T05:47:52.113Z,17.75
2022-08-09T05:48:48.840Z,17.82
2022-08-09T05:50:32.376Z,17.90
2022-08-09T05:50:51.210Z,17.95
2022-08-09T05:51:49.789Z,18.02
2022-08-09T05:52:53.493Z,18.07
2022-08-09T05:53:56.693Z,18.12
2022-08-09T05:54:50.599Z,18.17
2022-08-09T05:55:50.674Z,18.21
2022-08-09T05:56:54.640Z,18.26
2022-08-09T05:57:57.504Z,18.32
2022-08-09T05:58:53.726Z,18.33
2022-08-09T05:59:49.982Z,18.41
2022-08-09T06:00:49.642Z,18.44
2022-08-09T06:01:49.543Z,18.47
2022-08-09T06:02:49.510Z,18.54
2022-08-09T06:03:58.464Z,18.57
2022-08-09T06:04:49.737Z,18.63
2022-08-09T06:05:57.319Z,18.70
2022-08-09T06:06:50.350Z,18.76
2022-08-09T06:08:04.936Z,18.81
2022-08-09T06:08:52.497Z,18.85
2022-08-09T06:10:02.364Z,18.91
2022-08-09T06:10:49.739Z,18.95
2022-08-09T06:11:57.068Z,18.99
2022-08-09T06:12:50.434Z,19.02
2022-08-09T06:13:49.562Z,19.06
2022-08-09T06:14:49.064Z,19.07
2022-08-09T06:15:51.106Z,19.08
2022-08-09T06:16:52.524Z,19.07
2022-08-09T06:17:48.514Z,19.10
2022-08-09T06:18:48.983Z,19.11
2022-08-09T06:19:49.224Z,19.13
2022-08-09T06:20:54.328Z,19.16
2022-08-09T06:21:50.519Z,19.18
2022-08-09T06:22:49.466Z,19.19
2022-08-09T06:23:58.890Z,19.21
2022-08-09T06:24:49.472Z,19.23
2022-08-09T06:25:49.192Z,19.25
2022-08-09T06:26:48.413Z,19.28
2022-08-09T06:27:51.463Z,19.31
2022-08-09T06:28:48.871Z,19.33
2022-08-09T06:29:58.805Z,19.39
2022-08-09T06:30:50.094Z,19.41
2022-08-09T06:32:08.537Z,19.46
2022-08-09T06:33:13.145Z,19.48
2022-08-09T06:33:53.246Z,19.51
2022-08-09T06:34:52.990Z,19.56
2022-08-09T06:35:56.534Z,19.59
2022-08-09T06:36:49.345Z,19.62
2022-08-09T06:37:52.982Z,19.66
2022-08-09T06:38:50.161Z,19.71
2022-08-09T06:39:59.710Z,19.74
2022-08-09T06:40:55.102Z,19.77
2022-08-09T06:42:08.647Z,19.83
2022-08-09T06:42:49.515Z,19.87
2022-08-09T06:43:48.398Z,19.98
2022-08-09T06:44:51.890Z,20.08
2022-08-09T06:46:07.875Z,20.18
2022-08-09T06:46:49.855Z,20.29
2022-08-09T06:47:49.195Z,20.35
2022-08-09T06:48:49.195Z,20.42
2022-08-09T06:50:13.423Z,20.54
2022-08-09T06:50:49.143Z,20.67
2022-08-09T06:51:48.122Z,20.76
2022-08-09T06:52:48.856Z,20.84
2022-08-09T06:53:49.819Z,20.89
2022-08-09T06:54:48.086Z,20.97
2022-08-09T06:55:48.389Z,20.99
2022-08-09T06:56:48.151Z,21.06
2022-08-09T06:58:03.347Z,21.10
2022-08-09T07:00:49.456Z,21.12
2022-08-09T07:00:57.180Z,21.17
2022-08-09T07:00:58.710Z,21.21
2022-08-09T07:01:54.511Z,21.25
2022-08-09T07:02:49.054Z,21.29
2022-08-09T07:03:52.352Z,21.37
2022-08-09T07:04:49.127Z,21.43
2022-08-09T07:05:58.045Z,21.49
2022-08-09T07:06:53.138Z,21.54
2022-08-09T07:08:00.144Z,21.61
2022-08-09T07:08:49.734Z,21.65
2022-08-09T07:09:53.642Z,21.64
2022-08-09T07:10:48.916Z,21.68
2022-08-09T07:11:53.580Z,21.74
2022-08-09T07:12:57.215Z,21.80
2022-08-09T07:14:05.393Z,21.84
2022-08-09T07:14:50.683Z,21.91
2022-08-09T07:16:36.538Z,21.91
2022-08-09T07:16:55.309Z,21.96
2022-08-09T07:17:52.843Z,22.00
2022-08-09T07:18:50.041Z,22.06
2022-08-09T07:19:48.178Z,22.12
2022-08-09T07:20:47.923Z,22.18
2022-08-09T07:21:56.020Z,22.24
2022-08-09T07:22:53.451Z,22.28
2022-08-09T07:23:57.907Z,22.37
2022-08-09T07:24:49.447Z,22.45
2022-08-09T07:25:47.797Z,22.49
2022-08-09T07:26:50.889Z,22.55
2022-08-09T07:27:53.268Z,22.58
2022-08-09T07:29:08.319Z,22.65
2022-08-09T07:29:48.738Z,22.76
2022-08-09T07:30:47.687Z,22.70
2022-08-09T07:31:48.174Z,22.79
2022-08-09T07:32:47.659Z,22.88
2022-08-09T07:33:52.795Z,22.97
2022-08-09T07:34:48.658Z,23.00
2022-08-09T07:35:54.103Z,23.00
2022-08-09T07:36:48.651Z,23.09
2022-08-09T07:37:48.020Z,23.20
2022-08-09T07:38:55.145Z,23.32
2022-08-09T07:39:48.652Z,23.43
2022-08-09T07:41:00.929Z,23.55
2022-08-09T07:41:48.539Z,23.68
2022-08-09T07:42:47.540Z,23.75
2022-08-09T07:43:49.996Z,23.83
2022-08-09T07:44:52.062Z,23.83
2022-08-09T07:45:48.500Z,23.80
2022-08-09T07:46:47.500Z,23.80
2022-08-09T07:48:00.486Z,23.85
2022-08-09T07:48:59.083Z,23.98
2022-08-09T07:50:04.484Z,24.08
2022-08-09T07:50:53.004Z,24.05
2022-08-09T07:52:04.805Z,24.03
2022-08-09T07:52:48.700Z,23.97
2022-08-09T07:54:05.126Z,23.93
2022-08-09T07:54:51.405Z,23.83
2022-08-09T07:56:06.484Z,23.72
2022-08-09T07:56:49.514Z,23.78
2022-08-09T07:57:47.657Z,23.94
2022-08-09T07:58:47.511Z,24.10
2022-08-09T07:59:52.138Z,24.25
2022-08-09T08:00:58.743Z,24.31
2022-08-09T08:01:53.050Z,24.40
2022-08-09T08:02:48.321Z,24.40
2022-08-09T08:03:47.294Z,24.45
2022-08-09T08:04:48.782Z,24.53
2022-08-09T08:05:57.829Z,24.58
2022-08-09T08:06:56.101Z,24.64
2022-08-09T08:08:43.973Z,24.65
2022-08-09T08:09:03.669Z,24.69
2022-08-09T08:09:53.587Z,24.69
2022-08-09T08:11:03.074Z,24.77
2022-08-09T08:12:09.661Z,24.83
2022-08-09T08:12:48.199Z,24.84
2022-08-09T08:13:56.884Z,24.93
2022-08-09T08:14:48.190Z,24.91
2022-08-09T08:15:47.152Z,24.95
2022-08-09T08:17:00.761Z,24.91
2022-08-09T08:17:53.476Z,24.93
2022-08-09T08:18:48.134Z,24.98
2022-08-09T08:19:47.118Z,25.02
2022-08-09T08:20:47.112Z,25.08
2022-08-09T08:21:52.564Z,25.15
2022-08-09T08:22:48.388Z,25.24
2022-08-09T08:23:56.214Z,25.30
2022-08-09T08:24:49.209Z,25.38
2022-08-09T08:25:48.250Z,25.43
2022-08-09T08:26:55.834Z,25.54
2022-08-09T08:27:49.818Z,25.61
2022-08-09T08:28:47.054Z,25.65
2022-08-09T08:29:49.964Z,25.76
2022-08-09T08:30:47.647Z,25.82
2022-08-09T08:32:03.182Z,25.88
2022-08-09T08:32:53.483Z,25.91
2022-08-09T08:33:52.895Z,25.95
2022-08-09T08:34:47.944Z,25.98
2022-08-09T08:35:59.030Z,26.06
2022-08-09T08:36:47.943Z,26.07
2022-08-09T08:38:02.225Z,26.12
2022-08-09T08:38:47.895Z,26.17
2022-08-09T08:39:47.028Z,26.18
2022-08-09T08:40:49.587Z,26.21
2022-08-09T08:41:51.662Z,26.28
2022-08-09T08:42:47.855Z,26.33
2022-08-09T08:43:46.856Z,26.48
2022-08-09T08:44:46.835Z,26.63
2022-08-09T08:45:51.494Z,26.77
2022-08-09T08:47:02.921Z,26.84
2022-08-09T08:47:47.818Z,26.87
2022-08-09T08:48:51.472Z,26.89
2022-08-09T08:49:49.471Z,26.92
2022-08-09T08:50:49.390Z,26.94
2022-08-09T08:52:01.688Z,26.95
2022-08-09T08:52:57.430Z,27.03
2022-08-09T08:54:03.600Z,27.07
2022-08-09T08:54:47.728Z,27.12
2022-08-09T08:55:46.733Z,27.14
2022-08-09T08:56:46.697Z,27.22
2022-08-09T08:57:56.183Z,27.28
2022-08-09T08:58:47.687Z,27.41
2022-08-09T08:59:49.024Z,27.50
2022-08-09T09:00:47.686Z,27.59
2022-08-09T09:01:52.942Z,27.59
2022-08-09T09:02:50.100Z,27.67
2022-08-09T09:03:49.438Z,27.70
2022-08-09T09:04:52.577Z,27.67
2022-08-09T09:05:59.880Z,27.67
2022-08-09T09:06:47.590Z,27.60
2022-08-09T09:07:46.598Z,27.65
2022-08-09T09:08:52.575Z,27.75
2022-08-09T09:10:01.963Z,27.85
2022-08-09T09:10:47.605Z,27.93
2022-08-09T09:11:46.649Z,27.96
2022-08-09T09:12:46.539Z,27.96
2022-08-09T09:13:56.526Z,27.90
2022-08-09T09:14:47.551Z,27.90
2022-08-09T09:15:49.249Z,27.96
2022-08-09T09:16:46.501Z,27.99
2022-08-09T09:17:49.294Z,28.00
2022-08-09T09:18:54.875Z,28.02
2022-08-09T09:19:47.491Z,28.00
2022-08-09T09:20:46.460Z,27.97
2022-08-09T09:21:46.893Z,27.93
2022-08-09T09:22:46.424Z,27.87
2022-08-09T09:23:57.320Z,27.92
2022-08-09T09:24:47.427Z,27.94
2022-08-09T09:26:03.525Z,28.02
2022-08-09T09:26:47.380Z,28.12
2022-08-09T09:28:05.211Z,28.29
2022-08-09T09:29:03.538Z,28.37
2022-08-09T09:30:14.063Z,28.27
2022-08-09T09:30:47.495Z,28.27
2022-08-09T09:32:06.062Z,28.29
2022-08-09T09:32:47.301Z,28.19
2022-08-09T09:33:46.349Z,28.19
2022-08-09T09:34:47.311Z,28.24
2022-08-09T09:35:53.078Z,28.30
2022-08-09T09:36:54.017Z,28.31
2022-08-09T09:37:47.270Z,28.39
2022-08-09T09:38:46.223Z,28.43
2022-08-09T09:39:55.056Z,28.59
2022-08-09T09:40:47.214Z,28.59
2022-08-09T09:41:49.042Z,28.64
2022-08-09T09:42:46.575Z,28.68
2022-08-09T09:44:12.760Z,28.58
2022-08-09T09:44:47.162Z,28.54
2022-08-09T09:46:51.998Z,28.67
2022-08-09T09:47:56.241Z,28.71
2022-08-09T09:48:47.172Z,28.77
2022-08-09T09:50:07.293Z,28.77
2022-08-09T09:50:49.672Z,28.81
2022-08-09T09:51:47.834Z,28.88
2022-08-09T09:52:53.735Z,28.90
2022-08-09T09:54:00.938Z,28.98
2022-08-09T09:54:48.824Z,29.05
2022-08-09T09:55:47.424Z,29.12
2022-08-09T09:58:00.925Z,29.19
2022-08-09T09:58:03.710Z,29.36
2022-08-09T09:58:47.025Z,29.49
2022-08-09T09:59:46.035Z,29.55
2022-08-09T10:00:52.761Z,29.57
2022-08-09T10:01:47.388Z,29.57
2022-08-09T10:02:46.050Z,29.58
2022-08-09T10:03:57.588Z,29.67
2022-08-09T10:04:46.998Z,29.79
2022-08-09T10:06:03.703Z,29.89
2022-08-09T10:06:52.023Z,30.01
2022-08-09T10:08:10.945Z,30.10
2022-08-09T10:08:57.225Z,30.17
2022-08-09T10:09:48.754Z,30.19
2022-08-09T10:10:45.895Z,30.16
2022-08-09T10:12:00.527Z,30.05
2022-08-09T10:12:51.845Z,30.02
2022-08-09T10:13:46.846Z,30.04
2022-08-09T10:14:48.581Z,30.05
2022-08-09T10:16:09.198Z,30.04
2022-08-09T10:16:58.345Z,30.08
2022-08-09T10:17:55.902Z,30.26
2022-08-09T10:18:51.305Z,30.34
2022-08-09T10:19:46.826Z,30.35
2022-08-09T10:20:46.766Z,30.26
2022-08-09T10:21:48.642Z,30.22
2022-08-09T10:22:45.821Z,30.11
2022-08-09T10:23:46.667Z,30.07
2022-08-09T10:24:45.748Z,30.02
2022-08-09T10:26:07.497Z,29.97
2022-08-09T10:26:47.657Z,29.92
2022-08-09T10:27:57.946Z,29.97
2022-08-09T10:28:48.732Z,29.92
2022-08-09T10:30:29.980Z,29.92
2022-08-09T10:32:46.906Z,30.23
2022-08-09T10:34:08.870Z,30.31
2022-08-09T10:34:46.668Z,30.24
2022-08-09T10:35:45.626Z,30.24
2022-08-09T10:36:45.620Z,30.43
2022-08-09T10:37:45.619Z,30.64
2022-08-09T10:38:56.281Z,30.98
2022-08-09T10:39:49.298Z,31.14
2022-08-09T10:40:45.592Z,31.20
2022-08-09T10:41:45.626Z,31.17
2022-08-09T10:42:45.873Z,31.14
2022-08-09T10:43:47.071Z,31.17
2022-08-09T10:44:46.536Z,31.02
2022-08-09T10:45:59.986Z,30.99
2022-08-09T10:46:55.057Z,31.06
2022-08-09T10:48:19.315Z,31.38
2022-08-09T10:48:46.463Z,31.70
2022-08-09T10:49:51.339Z,31.78
2022-08-09T10:50:46.433Z,31.63
2022-08-09T10:51:45.433Z,31.35
2022-08-09T10:52:46.413Z,31.26
2022-08-09T10:53:46.661Z,30.94
2022-08-09T10:54:46.381Z,30.73
2022-08-09T10:55:58.235Z,30.72
2022-08-09T10:56:46.364Z,30.77
2022-08-09T10:57:45.363Z,30.98
2022-08-09T10:58:49.484Z,31.10
2022-08-09T10:59:57.875Z,31.28
2022-08-09T11:00:56.833Z,31.44
2022-08-09T11:03:11.853Z,31.66
2022-08-09T11:03:15.242Z,31.47
2022-08-09T11:03:46.956Z,31.12
2022-08-09T11:04:55.553Z,31.02
2022-08-09T11:06:00.635Z,31.06
2022-08-09T11:06:46.254Z,30.84
2022-08-09T11:07:56.891Z,30.69
2022-08-09T11:08:47.267Z,30.75
2022-08-09T11:09:47.628Z,30.77
2022-08-09T11:10:54.335Z,30.80
2022-08-09T11:11:51.903Z,30.95
2022-08-09T11:12:46.195Z,31.19
2022-08-09T11:13:49.938Z,31.51
2022-08-09T11:14:46.193Z,31.91
2022-08-09T11:16:04.466Z,32.06
2022-08-09T11:16:47.099Z,32.23
2022-08-09T11:17:45.155Z,32.33
2022-08-09T11:18:45.224Z,32.40
2022-08-09T11:20:11.229Z,32.38
2022-08-09T11:20:46.104Z,32.35
2022-08-09T11:21:45.139Z,32.26
2022-08-09T11:22:46.120Z,32.15
2022-08-09T11:23:48.857Z,32.07
2022-08-09T11:24:45.057Z,31.85
2022-08-09T11:25:48.455Z,31.91
2022-08-09T11:26:52.156Z,31.92
2022-08-09T11:28:03.714Z,32.00
2022-08-09T11:28:56.171Z,32.08
2022-08-09T11:30:04.338Z,32.18
2022-08-09T11:30:47.982Z,32.32
2022-08-09T11:31:50.385Z,32.51
2022-08-09T11:32:45.966Z,32.69
2022-08-09T11:33:45.396Z,32.82
2022-08-09T11:34:45.768Z,32.93
2022-08-09T11:35:50.151Z,32.99
2022-08-09T11:36:45.939Z,32.99
2022-08-09T11:37:44.937Z,32.93
2022-08-09T11:38:45.936Z,32.84
2022-08-09T11:39:44.940Z,32.82
2022-08-09T11:40:44.887Z,32.87
2022-08-09T11:41:45.829Z,32.88
2022-08-09T11:42:44.962Z,32.75
2022-08-09T11:43:44.877Z,32.74
2022-08-09T11:44:44.857Z,32.74
2022-08-09T11:45:44.922Z,32.23
2022-08-09T11:46:44.818Z,32.10
2022-08-09T11:47:44.818Z,31.95
2022-08-09T11:48:45.178Z,31.78
2022-08-09T11:50:52.306Z,31.62
2022-08-09T11:50:56.199Z,31.38
2022-08-09T11:53:02.028Z,31.13
2022-08-09T11:53:02.499Z,30.95
2022-08-09T11:53:59.355Z,30.39
2022-08-09T11:54:45.739Z,29.90
2022-08-09T11:55:53.331Z,29.70
2022-08-09T11:56:48.240Z,29.71
2022-08-09T11:57:47.649Z,29.82
2022-08-09T11:58:48.183Z,29.87
2022-08-09T11:59:45.101Z,29.92
2022-08-09T12:00:45.660Z,29.89
2022-08-09T12:02:16.205Z,29.87
2022-08-09T12:02:50.934Z,29.83
2022-08-09T12:03:57.311Z,29.85
2022-08-09T12:04:45.740Z,29.90
2022-08-09T12:05:47.244Z,29.97
2022-08-09T12:06:53.023Z,30.07
2022-08-09T12:07:45.631Z,30.20
2022-08-09T12:08:44.610Z,30.34
2022-08-09T12:09:50.536Z,30.51
2022-08-09T12:10:48.293Z,30.82
2022-08-09T12:12:03.626Z,30.97
2022-08-09T12:12:45.576Z,31.01
2022-08-09T12:14:10.542Z,30.94
2022-08-09T12:15:04.162Z,30.82
2022-08-09T12:15:48.801Z,30.77
2022-08-09T12:16:45.684Z,30.65
2022-08-09T12:17:48.899Z,30.64
2022-08-09T12:18:48.994Z,30.73
2022-08-09T12:19:45.491Z,30.65
2022-08-09T12:20:46.572Z,30.69
2022-08-09T12:21:50.273Z,30.80
2022-08-09T12:22:45.433Z,30.95
2022-08-09T12:23:58.117Z,31.09
2022-08-09T12:24:46.176Z,31.25
2022-08-09T12:25:49.251Z,31.41
2022-08-09T12:28:59.182Z,31.88
2022-08-09T12:28:59.683Z,31.72
2022-08-09T12:29:10.891Z,31.56
2022-08-09T12:29:54.664Z,32.04
2022-08-09T12:30:46.115Z,31.85
2022-08-09T12:32:01.818Z,31.62
2022-08-09T12:32:45.474Z,31.54
2022-08-09T12:33:58.528Z,31.54
2022-08-09T12:34:45.323Z,31.68
2022-08-09T12:35:44.309Z,31.78
2022-08-09T12:36:44.286Z,31.93
2022-08-09T12:37:49.982Z,32.13
2022-08-09T12:38:45.255Z,32.35
2022-08-09T12:39:44.265Z,32.65
2022-08-09T12:40:44.236Z,32.81
2022-08-09T12:41:44.227Z,32.93
2022-08-09T12:42:44.223Z,33.09
2022-08-09T12:44:06.705Z,33.06
2022-08-09T12:44:51.985Z,33.04
2022-08-09T12:46:00.113Z,32.96
2022-08-09T12:46:48.795Z,32.97
2022-08-09T12:47:50.327Z,32.85
2022-08-09T12:48:45.588Z,32.70
2022-08-09T12:49:52.942Z,32.52
2022-08-09T12:50:45.868Z,32.37
2022-08-09T12:52:00.787Z,32.14
2022-08-09T12:53:08.974Z,31.95
2022-08-09T12:53:45.173Z,31.80
2022-08-09T12:54:45.107Z,31.69
2022-08-09T12:56:15.185Z,31.57